createdAt,value
2018-09-24T00:00:13.439Z,92.50
2018-09-24T00:02:48.193Z,92.50
2018-09-24T00:05:16.459Z,92.50
2018-09-24T00:07:44.725Z,92.50
2018-09-24T00:10:12.943Z,92.50
2018-09-24T00:12:41.238Z,92.50
2018-09-24T00:15:09.361Z,92.50
2018-09-24T00:17:37.677Z,92.50
2018-09-24T00:20:05.986Z,92.50
2018-09-24T00:22:34.232Z,92.50
2018-09-24T00:25:02.846Z,92.50
2018-09-24T00:27:31.072Z,92.50
2018-09-24T00:29:59.400Z,92.60
2018-09-24T00:32:27.740Z,92.60
2018-09-24T00:34:56.061Z,92.50
2018-09-24T00:37:24.385Z,92.50
2018-09-24T00:39:52.700Z,92.40
2018-09-24T00:42:20.925Z,92.40
2018-09-24T00:44:49.205Z,92.40
2018-09-24T00:47:17.497Z,92.30
2018-09-24T00:49:45.778Z,92.30
2018-09-24T00:52:14.069Z,92.60
2018-09-24T00:54:42.321Z,92.20
2018-09-24T00:57:10.593Z,92.20
2018-09-24T00:59:38.913Z,92.20
2018-09-24T01:02:07.137Z,92.20
2018-09-24T01:04:35.392Z,92.10
2018-09-24T01:07:03.885Z,92.40
2018-09-24T01:09:32.144Z,92.10
2018-09-24T01:12:00.393Z,92.10
2018-09-24T01:14:28.692Z,92.20
2018-09-24T01:16:56.945Z,92.20
2018-09-24T01:19:25.225Z,92.20
2018-09-24T01:21:53.511Z,92.10
2018-09-24T01:24:21.752Z,92.00
2018-09-24T01:26:50.025Z,91.90
2018-09-24T01:29:18.290Z,91.80
2018-09-24T01:31:46.557Z,91.70
2018-09-24T01:34:14.849Z,91.60
2018-09-24T01:36:43.206Z,91.90
2018-09-24T01:39:11.483Z,91.50
2018-09-24T01:41:39.724Z,91.50
2018-09-24T01:44:08.240Z,91.50
2018-09-24T01:46:36.485Z,91.40
2018-09-24T01:49:04.751Z,91.40
2018-09-24T01:51:35.557Z,91.30
2018-09-24T01:54:04.549Z,91.30
2018-09-24T01:56:32.873Z,91.30
2018-09-24T01:59:01.105Z,91.20
2018-09-24T02:01:29.465Z,91.20
2018-09-24T02:03:57.850Z,91.10
2018-09-24T02:06:26.126Z,91.40
2018-09-24T02:08:54.421Z,91.20
2018-09-24T02:11:22.680Z,91.20
2018-09-24T02:13:52.012Z,91.20
2018-09-24T02:16:20.580Z,91.20
2018-09-24T02:18:49.471Z,91.30
2018-09-24T02:21:18.054Z,91.40
2018-09-24T02:23:46.327Z,91.40
2018-09-24T02:26:14.706Z,91.80
2018-09-24T02:28:42.983Z,91.50
2018-09-24T02:31:11.262Z,91.50
2018-09-24T02:33:39.542Z,91.60
2018-09-24T02:36:07.965Z,91.60
2018-09-24T02:38:42.817Z,91.70
2018-09-24T02:41:11.169Z,91.70
2018-09-24T02:43:39.442Z,91.80
2018-09-24T02:46:07.757Z,91.80
2018-09-24T02:48:36.082Z,91.90
2018-09-24T02:51:04.386Z,91.90
2018-09-24T02:53:40.629Z,92.30
2018-09-24T02:56:09.396Z,92.00
2018-09-24T02:58:37.683Z,92.00
2018-09-24T03:01:06.048Z,92.10
2018-09-24T03:03:34.321Z,92.10
2018-09-24T03:06:02.592Z,92.20
2018-09-24T03:08:30.849Z,92.20
2018-09-24T03:11:04.594Z,92.20
2018-09-24T03:13:32.889Z,92.10
2018-09-24T03:16:01.354Z,92.10
2018-09-24T03:18:29.590Z,92.00
2018-09-24T03:20:57.917Z,91.90
2018-09-24T03:23:26.197Z,92.00
2018-09-24T03:25:54.510Z,92.00
2018-09-24T03:28:22.800Z,92.00
2018-09-24T03:30:51.064Z,92.00
2018-09-24T03:33:19.310Z,92.00
2018-09-24T03:35:47.582Z,92.10
2018-09-24T03:38:15.894Z,92.10
2018-09-24T03:40:44.169Z,92.10
2018-09-24T03:43:12.481Z,92.20
2018-09-24T03:45:40.865Z,92.20
2018-09-24T03:48:09.130Z,92.20
2018-09-24T03:50:37.429Z,92.30
2018-09-24T03:53:05.722Z,92.40
2018-09-24T03:55:33.998Z,92.40
2018-09-24T03:58:02.246Z,92.50
2018-09-24T04:00:30.524Z,92.50
2018-09-24T04:02:58.795Z,92.50
2018-09-24T04:05:32.404Z,92.50
2018-09-24T04:08:06.116Z,92.50
2018-09-24T04:10:39.853Z,92.50
2018-09-24T04:13:13.509Z,92.50
2018-09-24T04:15:47.341Z,92.50
2018-09-24T04:18:21.089Z,92.60
2018-09-24T04:20:54.754Z,92.60
2018-09-24T04:23:28.445Z,92.50
2018-09-24T04:26:02.149Z,92.50
2018-09-24T04:28:35.825Z,92.50
2018-09-24T04:31:09.434Z,92.50
2018-09-24T04:33:43.038Z,92.40
2018-09-24T04:36:16.775Z,92.40
2018-09-24T04:38:50.374Z,92.30
2018-09-24T04:41:24.115Z,92.40
2018-09-24T04:43:57.806Z,92.40
2018-09-24T04:46:31.377Z,92.40
2018-09-24T04:49:04.973Z,92.40
2018-09-24T04:51:38.577Z,92.40
2018-09-24T04:54:12.246Z,92.40
2018-09-24T04:56:45.825Z,92.40
2018-09-24T04:59:19.466Z,92.30
2018-09-24T05:01:53.056Z,92.30
2018-09-24T05:04:26.693Z,92.30
2018-09-24T05:07:00.414Z,92.30
2018-09-24T05:09:34.077Z,92.30
2018-09-24T05:12:07.765Z,92.30
2018-09-24T05:14:41.431Z,92.30
2018-09-24T05:17:15.103Z,92.30
2018-09-24T05:19:48.725Z,92.30
2018-09-24T05:22:22.410Z,92.30
2018-09-24T05:24:56.129Z,92.40
2018-09-24T05:27:29.721Z,92.40
2018-09-24T05:30:03.293Z,92.40
2018-09-24T05:32:36.931Z,92.30
2018-09-24T05:35:10.615Z,92.20
2018-09-24T05:37:44.319Z,92.30
2018-09-24T05:40:17.926Z,92.00
2018-09-24T05:42:51.641Z,91.90
2018-09-24T05:45:25.316Z,91.80
2018-09-24T05:47:58.937Z,91.80
2018-09-24T05:50:32.418Z,91.80
2018-09-24T05:53:06.017Z,91.90
2018-09-24T05:55:39.718Z,91.90
2018-09-24T05:58:13.385Z,91.90
2018-09-24T06:00:47.051Z,91.90
2018-09-24T06:03:20.746Z,92.00
2018-09-24T06:05:54.381Z,91.90
2018-09-24T06:08:28.022Z,92.00
2018-09-24T06:11:01.758Z,91.90
2018-09-24T06:13:42.550Z,91.90
2018-09-24T06:16:16.110Z,91.80
2018-09-24T06:18:49.879Z,91.80
2018-09-24T06:21:23.438Z,91.80
2018-09-24T06:23:57.150Z,91.80
2018-09-24T06:26:30.787Z,91.80
2018-09-24T06:29:04.398Z,91.80
2018-09-24T06:31:38.110Z,91.80
2018-09-24T06:34:11.821Z,91.70
2018-09-24T06:36:45.463Z,91.80
2018-09-24T06:39:19.100Z,91.70
2018-09-24T06:41:52.786Z,91.70
2018-09-24T06:44:26.406Z,91.70
2018-09-24T06:47:00.043Z,91.60
2018-09-24T06:49:33.659Z,91.60
2018-09-24T06:52:07.262Z,91.70
2018-09-24T06:54:40.938Z,91.50
2018-09-24T06:57:14.590Z,90.90
2018-09-24T06:59:48.274Z,90.60
2018-09-24T07:02:21.978Z,90.40
2018-09-24T07:04:55.751Z,90.10
2018-09-24T07:07:29.461Z,90.10
2018-09-24T07:10:03.134Z,89.80
2018-09-24T07:12:36.774Z,89.70
2018-09-24T07:15:10.338Z,89.90
2018-09-24T07:17:44.012Z,90.00
2018-09-24T07:20:17.825Z,89.80
2018-09-24T07:22:51.410Z,89.70
2018-09-24T07:25:26.314Z,89.40
2018-09-24T07:28:00.018Z,88.80
2018-09-24T07:30:33.666Z,88.70
2018-09-24T07:33:07.348Z,87.00
2018-09-24T07:35:41.150Z,86.30
2018-09-24T07:38:14.793Z,85.90
2018-09-24T07:40:48.472Z,85.20
2018-09-24T07:43:22.299Z,83.90
2018-09-24T07:45:55.909Z,83.40
2018-09-24T07:48:29.613Z,83.70
2018-09-24T07:51:03.219Z,84.00
2018-09-24T07:53:36.893Z,84.60
2018-09-24T07:58:49.303Z,85.40
2018-09-24T08:01:23.175Z,85.90
2018-09-24T08:03:56.698Z,85.30
2018-09-24T08:06:30.366Z,84.60
2018-09-24T08:09:04.128Z,82.50
2018-09-24T08:11:37.830Z,81.40
2018-09-24T08:14:11.518Z,79.50
2018-09-24T08:16:45.695Z,78.50
2018-09-24T08:19:19.394Z,76.30
2018-09-24T08:21:53.099Z,75.10
2018-09-24T08:24:26.723Z,71.80
2018-09-24T08:27:00.396Z,69.20
2018-09-24T08:29:34.119Z,68.00
2018-09-24T08:32:07.752Z,65.30
2018-09-24T08:34:41.547Z,63.10
2018-09-24T08:37:15.312Z,63.80
2018-09-24T08:39:48.937Z,64.40
2018-09-24T08:42:22.656Z,64.10
2018-09-24T08:44:56.322Z,65.00
2018-09-24T08:47:29.999Z,65.50
2018-09-24T08:50:03.704Z,67.20
2018-09-24T08:52:37.407Z,68.00
2018-09-24T08:55:11.004Z,68.10
2018-09-24T08:57:44.691Z,67.70
2018-09-24T09:00:18.315Z,67.20
2018-09-24T09:02:52.027Z,65.70
2018-09-24T09:05:25.700Z,65.60
2018-09-24T09:07:59.385Z,65.60
2018-09-24T09:10:33.000Z,65.70
2018-09-24T09:13:06.602Z,65.10
2018-09-24T09:15:40.235Z,65.00
2018-09-24T09:18:19.486Z,65.30
2018-09-24T09:20:53.270Z,64.60
2018-09-24T09:23:26.919Z,63.80
2018-09-24T09:26:00.537Z,64.60
2018-09-24T09:28:34.339Z,63.80
2018-09-24T09:31:08.063Z,64.00
2018-09-24T09:33:41.815Z,63.30
2018-09-24T09:36:15.534Z,63.40
2018-09-24T09:38:49.190Z,61.80
2018-09-24T09:41:22.932Z,62.00
2018-09-24T09:43:56.567Z,62.70
2018-09-24T09:46:30.153Z,62.60
2018-09-24T09:49:03.707Z,62.10
2018-09-24T09:51:37.436Z,61.40
2018-09-24T09:54:11.411Z,61.00
2018-09-24T09:56:45.096Z,60.80
2018-09-24T09:59:18.856Z,60.70
2018-09-24T10:01:52.283Z,61.10
2018-09-24T10:04:26.055Z,61.70
2018-09-24T10:06:59.735Z,61.30
2018-09-24T10:09:33.309Z,61.60
2018-09-24T10:12:07.066Z,60.90
2018-09-24T10:14:40.734Z,60.10
2018-09-24T10:17:14.331Z,59.70
2018-09-24T10:19:47.923Z,60.10
2018-09-24T10:22:21.713Z,60.40
2018-09-24T10:24:55.430Z,60.00
2018-09-24T10:27:29.039Z,61.00
2018-09-24T10:30:02.801Z,61.60
2018-09-24T10:32:36.455Z,62.30
2018-09-24T10:35:10.139Z,62.60
2018-09-24T10:37:43.911Z,62.90
2018-09-24T10:40:17.641Z,63.40
2018-09-24T10:42:51.240Z,63.70
2018-09-24T10:45:24.943Z,64.50
2018-09-24T10:47:58.732Z,65.90
2018-09-24T10:50:32.644Z,64.00
2018-09-24T10:53:06.358Z,63.20
2018-09-24T10:55:39.934Z,62.70
2018-09-24T10:58:13.607Z,61.50
2018-09-24T11:00:47.294Z,61.20
2018-09-24T11:03:21.015Z,60.50
2018-09-24T11:05:54.603Z,59.80
2018-09-24T11:08:28.186Z,59.70
2018-09-24T11:11:01.894Z,59.80
2018-09-24T11:13:35.586Z,59.50
2018-09-24T11:16:09.239Z,58.40
2018-09-24T11:18:42.732Z,57.50
2018-09-24T11:21:16.436Z,57.60
2018-09-24T11:23:50.155Z,57.30
2018-09-24T11:28:57.644Z,54.70
2018-09-24T11:31:31.365Z,52.30
2018-09-24T11:34:04.948Z,52.00
2018-09-24T11:36:38.503Z,51.60
2018-09-24T11:39:13.820Z,51.70
2018-09-24T11:41:47.602Z,51.60
2018-09-24T11:44:21.308Z,50.90
2018-09-24T11:46:55.040Z,50.10
2018-09-24T11:49:28.700Z,49.40
2018-09-24T11:52:02.455Z,49.00
2018-09-24T11:54:36.160Z,50.40
2018-09-24T11:57:09.822Z,51.50
2018-09-24T11:59:44.571Z,52.60
2018-09-24T12:02:18.196Z,53.50
2018-09-24T12:04:51.796Z,54.50
2018-09-24T12:07:25.579Z,55.20
2018-09-24T12:09:59.284Z,55.80
2018-09-24T12:12:32.894Z,56.50
2018-09-24T12:15:06.612Z,56.40
2018-09-24T12:17:40.315Z,57.90
2018-09-24T12:20:13.687Z,59.60
2018-09-24T12:22:47.393Z,61.40
2018-09-24T12:25:21.018Z,63.10
2018-09-24T12:27:54.618Z,64.20
2018-09-24T12:30:28.415Z,65.00
2018-09-24T12:33:02.107Z,67.50
2018-09-24T12:35:35.713Z,68.30
2018-09-24T12:38:09.371Z,67.90
2018-09-24T12:40:43.116Z,65.30
2018-09-24T12:43:16.777Z,64.00
2018-09-24T12:45:50.535Z,62.80
2018-09-24T12:48:24.212Z,61.70
2018-09-24T12:50:57.790Z,62.00
2018-09-24T12:53:31.644Z,62.10
2018-09-24T12:56:05.095Z,61.90
2018-09-24T12:58:38.676Z,61.50
2018-09-24T13:01:12.350Z,61.60
2018-09-24T13:03:46.193Z,62.20
2018-09-24T13:06:19.888Z,61.90
2018-09-24T13:08:53.499Z,60.50
2018-09-24T13:11:27.166Z,58.80
2018-09-24T13:14:01.022Z,57.20
2018-09-24T13:16:34.567Z,55.40
2018-09-24T13:19:08.208Z,54.90
2018-09-24T13:21:41.862Z,53.50
2018-09-24T13:24:15.591Z,52.40
2018-09-24T13:26:49.230Z,51.90
2018-09-24T13:29:22.948Z,52.70
2018-09-24T13:31:56.647Z,50.40
2018-09-24T13:34:30.351Z,49.80
2018-09-24T13:37:04.126Z,49.40
2018-09-24T13:39:37.758Z,48.80
2018-09-24T13:42:11.666Z,47.60
2018-09-24T13:44:45.375Z,46.80
2018-09-24T13:47:19.068Z,47.20
2018-09-24T13:49:52.732Z,47.10
2018-09-24T13:52:26.416Z,47.80
2018-09-24T13:55:00.014Z,47.80
2018-09-24T13:57:33.667Z,48.10
2018-09-24T14:00:07.347Z,47.60
2018-09-24T14:02:41.039Z,47.80
2018-09-24T14:05:14.652Z,47.40
2018-09-24T14:07:48.208Z,48.40
2018-09-24T14:10:21.739Z,48.90
2018-09-24T14:12:56.175Z,49.50
2018-09-24T14:15:30.112Z,50.30
2018-09-24T14:18:03.859Z,51.80
2018-09-24T14:20:37.520Z,51.60
2018-09-24T14:23:11.292Z,52.00
2018-09-24T14:25:44.978Z,52.00
2018-09-24T14:28:18.547Z,52.40
2018-09-24T14:30:52.232Z,52.80
2018-09-24T14:33:25.836Z,53.30
2018-09-24T14:35:59.607Z,54.00
2018-09-24T14:38:33.315Z,54.00
2018-09-24T14:41:06.967Z,54.20
2018-09-24T14:43:40.671Z,54.30
2018-09-24T14:46:14.359Z,54.40
2018-09-24T14:48:47.939Z,54.20
2018-09-24T14:51:21.603Z,54.30
2018-09-24T14:53:55.272Z,54.30
2018-09-24T14:56:29.058Z,54.40
2018-09-24T14:59:02.631Z,54.50
2018-09-24T15:01:36.254Z,54.90
2018-09-24T15:04:09.939Z,55.30
2018-09-24T15:06:43.566Z,56.10
2018-09-24T15:09:17.195Z,56.60
2018-09-24T15:11:50.863Z,57.40
2018-09-24T15:14:24.583Z,57.90
2018-09-24T15:16:58.134Z,58.30
2018-09-24T15:19:31.955Z,59.10
2018-09-24T15:22:05.651Z,59.00
2018-09-24T15:24:39.379Z,58.60
2018-09-24T15:27:13.157Z,58.50
2018-09-24T15:29:46.823Z,58.70
2018-09-24T15:32:20.475Z,58.30
2018-09-24T15:34:54.363Z,58.20
2018-09-24T15:37:27.978Z,58.50
2018-09-24T15:40:01.592Z,58.50
2018-09-24T15:42:35.389Z,59.00
2018-09-24T15:45:09.180Z,58.90
2018-09-24T15:47:43.192Z,58.90
2018-09-24T15:50:16.894Z,59.20
2018-09-24T15:52:50.570Z,59.30
2018-09-24T15:55:25.084Z,59.40
2018-09-24T15:57:58.686Z,59.80
2018-09-24T16:00:32.394Z,60.10
2018-09-24T16:03:05.909Z,60.10
2018-09-24T16:05:39.563Z,60.30
2018-09-24T16:08:13.152Z,61.10
2018-09-24T16:10:46.689Z,61.10
2018-09-24T16:13:20.367Z,61.50
2018-09-24T16:15:53.932Z,61.70
2018-09-24T16:18:27.844Z,61.90
2018-09-24T16:21:01.543Z,62.20
2018-09-24T16:23:35.145Z,62.40
2018-09-24T16:26:08.896Z,63.60
2018-09-24T16:28:42.537Z,62.90
2018-09-24T16:31:16.456Z,63.30
2018-09-24T16:33:50.035Z,63.30
2018-09-24T16:36:23.599Z,63.60
2018-09-24T16:38:57.266Z,64.50
2018-09-24T16:41:30.914Z,64.20
2018-09-24T16:44:04.482Z,64.50
2018-09-24T16:46:38.479Z,64.60
2018-09-24T16:49:11.944Z,64.60
2018-09-24T16:51:45.514Z,64.60
2018-09-24T16:54:19.278Z,64.80
2018-09-24T16:56:52.947Z,66.10
2018-09-24T16:59:26.606Z,66.40
2018-09-24T17:02:00.367Z,66.50
2018-09-24T17:04:34.059Z,67.10
2018-09-24T17:07:07.704Z,67.40
2018-09-24T17:09:41.465Z,67.60
2018-09-24T17:12:15.244Z,68.40
2018-09-24T17:14:48.815Z,68.50
2018-09-24T17:17:22.504Z,68.80
2018-09-24T17:19:56.101Z,69.20
2018-09-24T17:22:29.854Z,69.10
2018-09-24T17:25:03.576Z,69.10
2018-09-24T17:27:37.212Z,69.00
2018-09-24T17:30:10.883Z,68.90
2018-09-24T17:32:44.542Z,68.80
2018-09-24T17:35:18.350Z,68.90
2018-09-24T17:37:51.900Z,69.10
2018-09-24T17:40:25.583Z,69.10
2018-09-24T17:42:59.215Z,69.10
2018-09-24T17:45:32.859Z,69.10
2018-09-24T17:48:06.558Z,69.50
2018-09-24T17:50:40.479Z,69.50
2018-09-24T17:53:14.248Z,69.70
2018-09-24T17:55:47.912Z,69.80
2018-09-24T17:58:21.597Z,70.10
2018-09-24T18:00:55.277Z,70.00
2018-09-24T18:03:29.067Z,70.10
2018-09-24T18:06:02.768Z,70.60
2018-09-24T18:08:36.213Z,70.80
2018-09-24T18:11:09.899Z,71.20
2018-09-24T18:13:43.523Z,71.40
2018-09-24T18:16:17.293Z,71.60
2018-09-24T18:18:50.972Z,71.80
2018-09-24T18:21:24.490Z,72.20
2018-09-24T18:23:58.240Z,72.70
2018-09-24T18:26:31.803Z,73.00
2018-09-24T18:29:05.532Z,73.00
2018-09-24T18:31:39.272Z,73.00
2018-09-24T18:34:13.039Z,73.10
2018-09-24T18:36:46.659Z,73.40
2018-09-24T18:39:20.268Z,73.50
2018-09-24T18:41:53.917Z,73.80
2018-09-24T18:44:27.559Z,73.90
2018-09-24T18:47:01.214Z,74.60
2018-09-24T18:49:34.956Z,74.10
2018-09-24T18:52:08.635Z,74.30
2018-09-24T18:54:42.340Z,74.30
2018-09-24T18:57:15.979Z,74.50
2018-09-24T18:59:49.582Z,74.60
2018-09-24T19:02:23.170Z,74.60
2018-09-24T19:04:56.915Z,74.70
2018-09-24T19:07:30.590Z,74.60
2018-09-24T19:10:04.152Z,74.80
2018-09-24T19:12:37.691Z,74.90
2018-09-24T19:15:11.339Z,75.00
2018-09-24T19:17:44.986Z,75.20
2018-09-24T19:20:18.481Z,75.20
2018-09-24T19:22:52.203Z,75.40
2018-09-24T19:25:25.892Z,75.50
2018-09-24T19:27:59.673Z,75.50
2018-09-24T19:30:33.339Z,75.70
2018-09-24T19:33:07.184Z,76.00
2018-09-24T19:35:40.949Z,76.00
2018-09-24T19:38:14.760Z,76.10
2018-09-24T19:40:48.368Z,76.30
2018-09-24T19:43:22.189Z,76.60
2018-09-24T19:45:55.864Z,76.80
2018-09-24T19:48:29.591Z,77.00
2018-09-24T19:51:03.903Z,77.70
2018-09-24T19:53:37.387Z,77.30
2018-09-24T19:56:11.384Z,77.40
2018-09-24T19:58:45.073Z,77.60
2018-09-24T20:01:18.827Z,78.00
2018-09-24T20:03:52.487Z,78.10
2018-09-24T20:06:26.260Z,77.90
2018-09-24T20:09:00.071Z,78.00
2018-09-24T20:11:33.782Z,78.00
2018-09-24T20:14:07.530Z,79.10
2018-09-24T20:16:41.333Z,78.50
2018-09-24T20:19:14.723Z,78.80
2018-09-24T20:21:48.323Z,79.00
2018-09-24T20:24:22.128Z,79.20
2018-09-24T20:26:55.676Z,79.30
2018-09-24T20:29:29.293Z,79.30
2018-09-24T20:32:03.055Z,79.50
2018-09-24T20:34:36.943Z,79.50
2018-09-24T20:37:10.412Z,79.70
2018-09-24T20:39:44.059Z,79.90
2018-09-24T20:42:17.807Z,80.10
2018-09-24T20:44:51.440Z,80.30
2018-09-24T20:47:25.129Z,80.50
2018-09-24T20:49:58.728Z,80.80
2018-09-24T20:52:32.414Z,81.10
2018-09-24T20:55:06.134Z,81.20
2018-09-24T20:57:39.877Z,81.00
2018-09-24T21:00:13.468Z,81.60
2018-09-24T21:02:47.223Z,81.90
2018-09-24T21:05:20.868Z,81.90
2018-09-24T21:07:54.466Z,82.60
2018-09-24T21:10:28.151Z,82.00
2018-09-24T21:13:01.891Z,82.30
2018-09-24T21:15:35.498Z,82.40
2018-09-24T21:18:09.226Z,82.40
2018-09-24T21:20:42.915Z,82.60
2018-09-24T21:23:16.623Z,82.70
2018-09-24T21:25:50.356Z,82.90
2018-09-24T21:28:24.033Z,83.10
2018-09-24T21:30:57.661Z,83.20
2018-09-24T21:33:31.263Z,83.30
2018-09-24T21:36:04.954Z,83.60
2018-09-24T21:38:38.570Z,83.90
2018-09-24T21:41:12.370Z,84.00
2018-09-24T21:43:46.042Z,84.10
2018-09-24T21:46:19.679Z,84.20
2018-09-24T21:48:53.211Z,84.30
2018-09-24T21:51:26.939Z,84.50
2018-09-24T21:54:00.581Z,84.50
2018-09-24T21:56:34.243Z,84.70
2018-09-24T21:59:07.923Z,84.90
2018-09-24T22:01:41.655Z,84.90
2018-09-24T22:04:15.430Z,84.90
2018-09-24T22:06:49.166Z,85.10
2018-09-24T22:09:22.907Z,85.20
2018-09-24T22:11:56.726Z,85.40
2018-09-24T22:14:30.454Z,85.50
2018-09-24T22:17:04.203Z,86.30
2018-09-24T22:19:37.831Z,85.70
2018-09-24T22:22:11.568Z,85.80
2018-09-24T22:24:45.235Z,85.90
2018-09-24T22:27:18.783Z,85.80
2018-09-24T22:29:52.387Z,85.80
2018-09-24T22:32:26.213Z,86.10
2018-09-24T22:34:59.974Z,86.30
2018-09-24T22:37:33.702Z,86.30
2018-09-24T22:40:07.315Z,86.40
2018-09-24T22:42:41.010Z,86.70
2018-09-24T22:45:14.671Z,87.00
2018-09-24T22:47:48.331Z,87.10
2018-09-24T22:50:21.946Z,87.20
2018-09-24T22:52:55.507Z,87.20
2018-09-24T22:55:29.202Z,87.30
2018-09-24T22:58:02.870Z,87.30
2018-09-24T23:00:36.474Z,87.40
2018-09-24T23:03:10.210Z,87.50
2018-09-24T23:05:43.918Z,87.60
2018-09-24T23:08:17.588Z,87.70
2018-09-24T23:10:51.180Z,87.60
2018-09-24T23:13:24.842Z,87.70
2018-09-24T23:15:58.471Z,87.70
2018-09-24T23:18:32.026Z,87.80
2018-09-24T23:21:05.672Z,87.70
2018-09-24T23:23:39.335Z,87.80
2018-09-24T23:26:13.046Z,87.80
2018-09-24T23:28:46.586Z,88.60
2018-09-24T23:31:20.322Z,87.90
2018-09-24T23:33:53.981Z,88.00
2018-09-24T23:36:27.809Z,88.00
2018-09-24T23:39:01.367Z,88.00
2018-09-24T23:41:35.067Z,88.20
2018-09-24T23:44:08.823Z,88.30
2018-09-24T23:46:42.471Z,88.40
2018-09-24T23:49:16.107Z,88.30
2018-09-24T23:51:49.795Z,88.40
2018-09-24T23:54:23.507Z,88.50
2018-09-24T23:56:57.182Z,88.60
2018-09-24T23:59:30.786Z,88.60
